sensor_id;sensor_type;location;lat;lon;timestamp;P1;P2;P0
47810;PMS5003;33575;52.600;7.318;2023-08-08T00:01:13;7;7;
47810;PMS5003;33575;52.600;7.318;2023-08-08T00:03:43;8;7;
47810;PMS5003;33575;52.600;7.318;2023-08-08T00:06:13;6;6;
47810;PMS5003;33575;52.600;7.318;2023-08-08T00:08:44;5;5;
47810;PMS5003;33575;52.600;7.318;2023-08-08T00:11:14;6;6;
47810;PMS5003;33575;52.600;7.318;2023-08-08T00:13:44;7;6;
47810;PMS5003;33575;52.600;7.318;2023-08-08T00:16:15;6;6;
47810;PMS5003;33575;52.600;7.318;2023-08-08T00:18:45;8;8;
47810;PMS5003;33575;52.600;7.318;2023-08-08T00:21:16;7;7;
47810;PMS5003;33575;52.600;7.318;2023-08-08T00:23:46;7;7;
47810;PMS5003;33575;52.600;7.318;2023-08-08T00:26:17;8;8;
47810;PMS5003;33575;52.600;7.318;2023-08-08T00:28:47;10;10;
47810;PMS5003;33575;52.600;7.318;2023-08-08T00:31:18;8;8;
47810;PMS5003;33575;52.600;7.318;2023-08-08T00:33:48;8;7;
47810;PMS5003;33575;52.600;7.318;2023-08-08T00:36:18;9;9;
47810;PMS5003;33575;52.600;7.318;2023-08-08T00:38:49;8;8;
47810;PMS5003;33575;52.600;7.318;2023-08-08T00:41:19;8;8;
47810;PMS5003;33575;52.600;7.318;2023-08-08T00:43:49;8;6;
47810;PMS5003;33575;52.600;7.318;2023-08-08T00:46:23;9;8;
47810;PMS5003;33575;52.600;7.318;2023-08-08T00:48:50;8;6;
47810;PMS5003;33575;52.600;7.318;2023-08-08T00:51:20;9;9;
47810;PMS5003;33575;52.600;7.318;2023-08-08T00:53:51;9;7;
47810;PMS5003;33575;52.600;7.318;2023-08-08T00:56:21;6;6;
47810;PMS5003;33575;52.600;7.318;2023-08-08T00:58:52;7;7;
47810;PMS5003;33575;52.600;7.318;2023-08-08T01:01:22;7;7;
47810;PMS5003;33575;52.600;7.318;2023-08-08T01:03:53;9;8;
47810;PMS5003;33575;52.600;7.318;2023-08-08T01:06:25;8;8;
47810;PMS5003;33575;52.600;7.318;2023-08-08T01:08:55;12;11;
47810;PMS5003;33575;52.600;7.318;2023-08-08T01:11:23;9;9;
47810;PMS5003;33575;52.600;7.318;2023-08-08T01:13:54;10;8;
47810;PMS5003;33575;52.600;7.318;2023-08-08T01:16:24;9;8;
47810;PMS5003;33575;52.600;7.318;2023-08-08T01:18:55;6;6;
47810;PMS5003;33575;52.600;7.318;2023-08-08T01:21:25;8;7;
47810;PMS5003;33575;52.600;7.318;2023-08-08T01:23:56;8;7;
47810;PMS5003;33575;52.600;7.318;2023-08-08T01:26:26;11;9;
47810;PMS5003;33575;52.600;7.318;2023-08-08T01:28:56;7;7;
47810;PMS5003;33575;52.600;7.318;2023-08-08T01:31:27;6;6;
47810;PMS5003;33575;52.600;7.318;2023-08-08T01:33:57;7;6;
47810;PMS5003;33575;52.600;7.318;2023-08-08T01:36:29;8;8;
47810;PMS5003;33575;52.600;7.318;2023-08-08T01:38:58;8;7;
47810;PMS5003;33575;52.600;7.318;2023-08-08T01:41:28;7;7;
47810;PMS5003;33575;52.600;7.318;2023-08-08T01:43:59;7;7;
47810;PMS5003;33575;52.600;7.318;2023-08-08T01:46:29;9;8;
47810;PMS5003;33575;52.600;7.318;2023-08-08T01:48:59;8;8;
47810;PMS5003;33575;52.600;7.318;2023-08-08T01:51:30;8;8;
47810;PMS5003;33575;52.600;7.318;2023-08-08T01:54:00;11;11;
47810;PMS5003;33575;52.600;7.318;2023-08-08T01:56:30;8;8;
47810;PMS5003;33575;52.600;7.318;2023-08-08T01:59:01;10;10;
47810;PMS5003;33575;52.600;7.318;2023-08-08T02:01:31;10;10;
47810;PMS5003;33575;52.600;7.318;2023-08-08T02:04:01;10;10;
47810;PMS5003;33575;52.600;7.318;2023-08-08T02:06:32;10;8;
47810;PMS5003;33575;52.600;7.318;2023-08-08T02:09:03;10;9;
47810;PMS5003;33575;52.600;7.318;2023-08-08T02:11:33;8;8;
47810;PMS5003;33575;52.600;7.318;2023-08-08T02:14:03;10;9;
47810;PMS5003;33575;52.600;7.318;2023-08-08T02:16:33;10;9;
47810;PMS5003;33575;52.600;7.318;2023-08-08T02:19:03;6;6;
47810;PMS5003;33575;52.600;7.318;2023-08-08T02:21:34;9;7;
47810;PMS5003;33575;52.600;7.318;2023-08-08T02:24:04;9;8;
47810;PMS5003;33575;52.600;7.318;2023-08-08T02:26:35;6;6;
47810;PMS5003;33575;52.600;7.318;2023-08-08T02:29:05;9;9;
47810;PMS5003;33575;52.600;7.318;2023-08-08T02:31:35;7;7;
47810;PMS5003;33575;52.600;7.318;2023-08-08T02:34:06;8;8;
47810;PMS5003;33575;52.600;7.318;2023-08-08T02:36:36;7;7;
47810;PMS5003;33575;52.600;7.318;2023-08-08T02:39:06;8;8;
47810;PMS5003;33575;52.600;7.318;2023-08-08T02:41:37;9;9;
47810;PMS5003;33575;52.600;7.318;2023-08-08T02:44:07;11;10;
47810;PMS5003;33575;52.600;7.318;2023-08-08T02:46:37;8;8;
47810;PMS5003;33575;52.600;7.318;2023-08-08T02:49:07;7;7;
47810;PMS5003;33575;52.600;7.318;2023-08-08T02:51:37;7;7;
47810;PMS5003;33575;52.600;7.318;2023-08-08T02:54:08;9;8;
47810;PMS5003;33575;52.600;7.318;2023-08-08T02:56:38;11;9;
47810;PMS5003;33575;52.600;7.318;2023-08-08T02:59:08;9;7;
47810;PMS5003;33575;52.600;7.318;2023-08-08T03:01:39;10;8;
47810;PMS5003;33575;52.600;7.318;2023-08-08T03:04:09;9;8;
47810;PMS5003;33575;52.600;7.318;2023-08-08T03:06:39;8;7;
47810;PMS5003;33575;52.600;7.318;2023-08-08T03:09:10;9;8;
47810;PMS5003;33575;52.600;7.318;2023-08-08T03:11:40;7;7;
47810;PMS5003;33575;52.600;7.318;2023-08-08T03:14:11;12;12;
47810;PMS5003;33575;52.600;7.318;2023-08-08T03:16:41;8;8;
47810;PMS5003;33575;52.600;7.318;2023-08-08T03:19:11;9;9;
47810;PMS5003;33575;52.600;7.318;2023-08-08T03:21:42;14;12;
47810;PMS5003;33575;52.600;7.318;2023-08-08T03:24:12;8;8;
47810;PMS5003;33575;52.600;7.318;2023-08-08T03:26:42;11;9;
47810;PMS5003;33575;52.600;7.318;2023-08-08T03:29:13;10;8;
47810;PMS5003;33575;52.600;7.318;2023-08-08T03:31:43;11;10;
47810;PMS5003;33575;52.600;7.318;2023-08-08T03:34:14;7;6;
47810;PMS5003;33575;52.600;7.318;2023-08-08T03:36:44;9;8;
47810;PMS5003;33575;52.600;7.318;2023-08-08T03:39:14;8;7;
47810;PMS5003;33575;52.600;7.318;2023-08-08T03:41:45;11;9;
47810;PMS5003;33575;52.600;7.318;2023-08-08T03:44:15;7;7;
47810;PMS5003;33575;52.600;7.318;2023-08-08T03:46:46;9;8;
47810;PMS5003;33575;52.600;7.318;2023-08-08T03:49:16;11;11;
47810;PMS5003;33575;52.600;7.318;2023-08-08T03:51:46;9;9;
47810;PMS5003;33575;52.600;7.318;2023-08-08T03:54:17;8;8;
47810;PMS5003;33575;52.600;7.318;2023-08-08T03:56:47;9;8;
47810;PMS5003;33575;52.600;7.318;2023-08-08T03:59:17;9;8;
47810;PMS5003;33575;52.600;7.318;2023-08-08T04:01:48;11;8;
47810;PMS5003;33575;52.600;7.318;2023-08-08T04:04:18;12;9;
47810;PMS5003;33575;52.600;7.318;2023-08-08T04:06:49;9;8;
47810;PMS5003;33575;52.600;7.318;2023-08-08T04:09:19;12;11;
47810;PMS5003;33575;52.600;7.318;2023-08-08T04:11:49;12;11;
47810;PMS5003;33575;52.600;7.318;2023-08-08T04:14:20;10;9;
47810;PMS5003;33575;52.600;7.318;2023-08-08T04:16:50;9;8;
47810;PMS5003;33575;52.600;7.318;2023-08-08T04:19:20;9;8;
47810;PMS5003;33575;52.600;7.318;2023-08-08T04:21:51;8;8;
47810;PMS5003;33575;52.600;7.318;2023-08-08T04:24:21;7;7;
47810;PMS5003;33575;52.600;7.318;2023-08-08T04:26:51;7;7;
47810;PMS5003;33575;52.600;7.318;2023-08-08T04:29:22;9;9;
47810;PMS5003;33575;52.600;7.318;2023-08-08T04:31:52;10;9;
47810;PMS5003;33575;52.600;7.318;2023-08-08T04:34:22;9;8;
47810;PMS5003;33575;52.600;7.318;2023-08-08T04:36:53;9;7;
47810;PMS5003;33575;52.600;7.318;2023-08-08T04:39:23;9;9;
47810;PMS5003;33575;52.600;7.318;2023-08-08T04:41:54;10;9;
47810;PMS5003;33575;52.600;7.318;2023-08-08T04:44:24;8;7;
47810;PMS5003;33575;52.600;7.318;2023-08-08T04:46:55;8;7;
47810;PMS5003;33575;52.600;7.318;2023-08-08T04:49:25;6;6;
47810;PMS5003;33575;52.600;7.318;2023-08-08T04:51:55;8;8;
47810;PMS5003;33575;52.600;7.318;2023-08-08T04:54:26;8;8;
47810;PMS5003;33575;52.600;7.318;2023-08-08T04:56:56;11;9;
47810;PMS5003;33575;52.600;7.318;2023-08-08T04:59:26;8;8;
47810;PMS5003;33575;52.600;7.318;2023-08-08T05:01:56;9;8;
47810;PMS5003;33575;52.600;7.318;2023-08-08T05:04:27;9;9;
47810;PMS5003;33575;52.600;7.318;2023-08-08T05:06:57;7;7;
47810;PMS5003;33575;52.600;7.318;2023-08-08T05:09:28;9;8;
47810;PMS5003;33575;52.600;7.318;2023-08-08T05:11:58;9;8;
47810;PMS5003;33575;52.600;7.318;2023-08-08T05:14:28;7;7;
47810;PMS5003;33575;52.600;7.318;2023-08-08T05:16:59;8;7;
47810;PMS5003;33575;52.600;7.318;2023-08-08T05:19:29;13;7;
47810;PMS5003;33575;52.600;7.318;2023-08-08T05:22:00;9;9;
47810;PMS5003;33575;52.600;7.318;2023-08-08T05:24:30;9;7;
47810;PMS5003;33575;52.600;7.318;2023-08-08T05:27:00;9;8;
47810;PMS5003;33575;52.600;7.318;2023-08-08T05:29:31;8;7;
47810;PMS5003;33575;52.600;7.318;2023-08-08T05:32:02;7;6;
47810;PMS5003;33575;52.600;7.318;2023-08-08T05:34:32;6;5;
47810;PMS5003;33575;52.600;7.318;2023-08-08T05:37:07;5;5;
47810;PMS5003;33575;52.600;7.318;2023-08-08T05:39:33;9;8;
47810;PMS5003;33575;52.600;7.318;2023-08-08T05:42:03;6;5;
47810;PMS5003;33575;52.600;7.318;2023-08-08T05:44:33;12;11;
47810;PMS5003;33575;52.600;7.318;2023-08-08T05:47:04;8;8;
47810;PMS5003;33575;52.600;7.318;2023-08-08T05:49:34;7;7;
47810;PMS5003;33575;52.600;7.318;2023-08-08T05:52:05;7;7;
47810;PMS5003;33575;52.600;7.318;2023-08-08T05:54:36;5;5;
47810;PMS5003;33575;52.600;7.318;2023-08-08T05:57:06;7;6;
47810;PMS5003;33575;52.600;7.318;2023-08-08T05:59:35;8;6;
47810;PMS5003;33575;52.600;7.318;2023-08-08T06:02:06;6;5;
47810;PMS5003;33575;52.600;7.318;2023-08-08T06:04:36;9;6;
47810;PMS5003;33575;52.600;7.318;2023-08-08T06:07:10;8;7;
47810;PMS5003;33575;52.600;7.318;2023-08-08T06:09:37;6;5;
47810;PMS5003;33575;52.600;7.318;2023-08-08T06:12:08;9;7;
47810;PMS5003;33575;52.600;7.318;2023-08-08T06:14:38;8;6;
47810;PMS5003;33575;52.600;7.318;2023-08-08T06:17:08;7;6;
47810;PMS5003;33575;52.600;7.318;2023-08-08T06:19:39;6;6;
47810;PMS5003;33575;52.600;7.318;2023-08-08T06:22:09;5;5;
47810;PMS5003;33575;52.600;7.318;2023-08-08T06:24:39;6;5;
47810;PMS5003;33575;52.600;7.318;2023-08-08T06:27:10;7;5;
47810;PMS5003;33575;52.600;7.318;2023-08-08T06:29:40;5;4;
47810;PMS5003;33575;52.600;7.318;2023-08-08T06:32:11;5;5;
47810;PMS5003;33575;52.600;7.318;2023-08-08T06:34:41;2;2;
47810;PMS5003;33575;52.600;7.318;2023-08-08T06:37:11;4;3;
47810;PMS5003;33575;52.600;7.318;2023-08-08T06:39:41;5;3;
47810;PMS5003;33575;52.600;7.318;2023-08-08T06:42:12;4;3;
47810;PMS5003;33575;52.600;7.318;2023-08-08T06:44:43;4;4;
47810;PMS5003;33575;52.600;7.318;2023-08-08T06:47:13;2;2;
47810;PMS5003;33575;52.600;7.318;2023-08-08T06:49:43;2;2;
47810;PMS5003;33575;52.600;7.318;2023-08-08T06:52:13;4;3;
47810;PMS5003;33575;52.600;7.318;2023-08-08T06:54:44;2;2;
47810;PMS5003;33575;52.600;7.318;2023-08-08T06:57:14;2;2;
47810;PMS5003;33575;52.600;7.318;2023-08-08T06:59:44;3;3;
47810;PMS5003;33575;52.600;7.318;2023-08-08T07:02:15;4;3;
47810;PMS5003;33575;52.600;7.318;2023-08-08T07:04:45;3;3;
47810;PMS5003;33575;52.600;7.318;2023-08-08T07:07:16;5;3;
47810;PMS5003;33575;52.600;7.318;2023-08-08T07:09:46;5;3;
47810;PMS5003;33575;52.600;7.318;2023-08-08T07:12:16;4;3;
47810;PMS5003;33575;52.600;7.318;2023-08-08T07:14:46;3;3;
47810;PMS5003;33575;52.600;7.318;2023-08-08T07:17:17;2;2;
47810;PMS5003;33575;52.600;7.318;2023-08-08T07:19:47;4;3;
47810;PMS5003;33575;52.600;7.318;2023-08-08T07:22:17;3;2;
47810;PMS5003;33575;52.600;7.318;2023-08-08T07:24:48;2;2;
47810;PMS5003;33575;52.600;7.318;2023-08-08T07:27:18;2;2;
47810;PMS5003;33575;52.600;7.318;2023-08-08T07:29:48;1;1;
47810;PMS5003;33575;52.600;7.318;2023-08-08T07:32:19;5;2;
47810;PMS5003;33575;52.600;7.318;2023-08-08T07:34:49;6;4;
47810;PMS5003;33575;52.600;7.318;2023-08-08T07:37:19;3;3;
47810;PMS5003;33575;52.600;7.318;2023-08-08T07:39:50;2;2;
47810;PMS5003;33575;52.600;7.318;2023-08-08T07:42:20;2;2;
47810;PMS5003;33575;52.600;7.318;2023-08-08T07:44:51;3;3;
47810;PMS5003;33575;52.600;7.318;2023-08-08T07:47:21;3;3;
47810;PMS5003;33575;52.600;7.318;2023-08-08T07:49:51;1;1;
47810;PMS5003;33575;52.600;7.318;2023-08-08T07:52:22;3;1;
47810;PMS5003;33575;52.600;7.318;2023-08-08T07:54:52;2;2;
47810;PMS5003;33575;52.600;7.318;2023-08-08T07:57:23;3;2;
47810;PMS5003;33575;52.600;7.318;2023-08-08T07:59:53;1;1;
47810;PMS5003;33575;52.600;7.318;2023-08-08T08:02:23;2;2;
47810;PMS5003;33575;52.600;7.318;2023-08-08T08:04:53;3;2;
47810;PMS5003;33575;52.600;7.318;2023-08-08T08:07:24;2;2;
47810;PMS5003;33575;52.600;7.318;2023-08-08T08:09:54;5;3;
47810;PMS5003;33575;52.600;7.318;2023-08-08T08:12:24;1;1;
47810;PMS5003;33575;52.600;7.318;2023-08-08T08:14:55;2;2;
47810;PMS5003;33575;52.600;7.318;2023-08-08T08:17:25;1;1;
47810;PMS5003;33575;52.600;7.318;2023-08-08T08:19:55;1;1;
47810;PMS5003;33575;52.600;7.318;2023-08-08T08:22:26;2;2;
47810;PMS5003;33575;52.600;7.318;2023-08-08T08:24:56;3;2;
47810;PMS5003;33575;52.600;7.318;2023-08-08T08:27:26;2;2;
47810;PMS5003;33575;52.600;7.318;2023-08-08T08:29:57;2;2;
47810;PMS5003;33575;52.600;7.318;2023-08-08T08:32:27;1;1;
47810;PMS5003;33575;52.600;7.318;2023-08-08T08:34:57;4;2;
47810;PMS5003;33575;52.600;7.318;2023-08-08T08:37:28;3;2;
47810;PMS5003;33575;52.600;7.318;2023-08-08T08:39:58;1;1;
47810;PMS5003;33575;52.600;7.318;2023-08-08T08:42:28;2;2;
47810;PMS5003;33575;52.600;7.318;2023-08-08T08:44:59;3;3;
47810;PMS5003;33575;52.600;7.318;2023-08-08T08:47:30;1;1;
47810;PMS5003;33575;52.600;7.318;2023-08-08T08:49:59;1;1;
47810;PMS5003;33575;52.600;7.318;2023-08-08T08:52:30;2;2;
47810;PMS5003;33575;52.600;7.318;2023-08-08T08:55:00;2;2;
47810;PMS5003;33575;52.600;7.318;2023-08-08T08:57:30;0;0;
47810;PMS5003;33575;52.600;7.318;2023-08-08T09:00:00;2;2;
47810;PMS5003;33575;52.600;7.318;2023-08-08T09:02:31;1;1;
47810;PMS5003;33575;52.600;7.318;2023-08-08T09:05:01;2;2;
47810;PMS5003;33575;52.600;7.318;2023-08-08T09:07:31;0;0;
47810;PMS5003;33575;52.600;7.318;2023-08-08T09:10:02;1;1;
47810;PMS5003;33575;52.600;7.318;2023-08-08T09:12:32;2;1;
47810;PMS5003;33575;52.600;7.318;2023-08-08T09:15:03;1;0;
47810;PMS5003;33575;52.600;7.318;2023-08-08T09:17:36;0;0;
47810;PMS5003;33575;52.600;7.318;2023-08-08T09:20:03;1;0;
47810;PMS5003;33575;52.600;7.318;2023-08-08T09:22:33;1;1;
47810;PMS5003;33575;52.600;7.318;2023-08-08T09:25:04;1;1;
47810;PMS5003;33575;52.600;7.318;2023-08-08T09:27:34;0;0;
47810;PMS5003;33575;52.600;7.318;2023-08-08T09:30:05;2;2;
47810;PMS5003;33575;52.600;7.318;2023-08-08T09:32:35;0;0;
47810;PMS5003;33575;52.600;7.318;2023-08-08T09:35:05;1;1;
47810;PMS5003;33575;52.600;7.318;2023-08-08T09:37:35;1;1;
47810;PMS5003;33575;52.600;7.318;2023-08-08T09:40:06;1;0;
47810;PMS5003;33575;52.600;7.318;2023-08-08T09:42:36;1;1;
47810;PMS5003;33575;52.600;7.318;2023-08-08T09:45:07;1;1;
47810;PMS5003;33575;52.600;7.318;2023-08-08T09:47:37;1;1;
47810;PMS5003;33575;52.600;7.318;2023-08-08T09:50:07;1;1;
47810;PMS5003;33575;52.600;7.318;2023-08-08T09:52:37;1;1;
47810;PMS5003;33575;52.600;7.318;2023-08-08T09:55:07;0;0;
47810;PMS5003;33575;52.600;7.318;2023-08-08T09:57:38;1;1;
47810;PMS5003;33575;52.600;7.318;2023-08-08T10:00:08;1;1;
47810;PMS5003;33575;52.600;7.318;2023-08-08T10:02:38;1;1;
47810;PMS5003;33575;52.600;7.318;2023-08-08T10:05:08;1;1;
47810;PMS5003;33575;52.600;7.318;2023-08-08T10:07:39;1;1;
47810;PMS5003;33575;52.600;7.318;2023-08-08T10:10:09;1;1;
47810;PMS5003;33575;52.600;7.318;2023-08-08T10:12:39;1;1;
47810;PMS5003;33575;52.600;7.318;2023-08-08T10:15:10;1;1;
47810;PMS5003;33575;52.600;7.318;2023-08-08T10:17:40;2;2;
47810;PMS5003;33575;52.600;7.318;2023-08-08T10:20:10;1;1;
47810;PMS5003;33575;52.600;7.318;2023-08-08T10:22:42;1;1;
47810;PMS5003;33575;52.600;7.318;2023-08-08T10:27:41;1;1;
47810;PMS5003;33575;52.600;7.318;2023-08-08T10:30:11;3;2;
47810;PMS5003;33575;52.600;7.318;2023-08-08T10:32:42;1;1;
47810;PMS5003;33575;52.600;7.318;2023-08-08T10:35:12;1;1;
47810;PMS5003;33575;52.600;7.318;2023-08-08T10:40:16;3;3;
47810;PMS5003;33575;52.600;7.318;2023-08-08T10:42:43;2;2;
47810;PMS5003;33575;52.600;7.318;2023-08-08T10:45:13;1;1;
47810;PMS5003;33575;52.600;7.318;2023-08-08T10:47:43;4;2;
47810;PMS5003;33575;52.600;7.318;2023-08-08T10:50:14;2;2;
47810;PMS5003;33575;52.600;7.318;2023-08-08T10:55:17;1;1;
47810;PMS5003;33575;52.600;7.318;2023-08-08T11:00:16;3;2;
47810;PMS5003;33575;52.600;7.318;2023-08-08T11:02:45;3;3;
47810;PMS5003;33575;52.600;7.318;2023-08-08T11:05:15;3;3;
47810;PMS5003;33575;52.600;7.318;2023-08-08T11:07:46;2;2;
47810;PMS5003;33575;52.600;7.318;2023-08-08T11:10:16;3;3;
47810;PMS5003;33575;52.600;7.318;2023-08-08T11:15:17;4;2;
47810;PMS5003;33575;52.600;7.318;2023-08-08T11:17:48;3;3;
47810;PMS5003;33575;52.600;7.318;2023-08-08T11:20:18;3;2;
47810;PMS5003;33575;52.600;7.318;2023-08-08T11:22:51;3;3;
47810;PMS5003;33575;52.600;7.318;2023-08-08T11:25:18;3;3;
47810;PMS5003;33575;52.600;7.318;2023-08-08T11:27:49;3;3;
47810;PMS5003;33575;52.600;7.318;2023-08-08T11:30:20;3;3;
47810;PMS5003;33575;52.600;7.318;2023-08-08T11:32:54;3;3;
47810;PMS5003;33575;52.600;7.318;2023-08-08T11:35:20;2;2;
47810;PMS5003;33575;52.600;7.318;2023-08-08T11:37:50;3;2;
47810;PMS5003;33575;52.600;7.318;2023-08-08T11:40:20;1;1;
47810;PMS5003;33575;52.600;7.318;2023-08-08T11:42:51;2;2;
47810;PMS5003;33575;52.600;7.318;2023-08-08T11:45:21;1;1;
47810;PMS5003;33575;52.600;7.318;2023-08-08T11:47:52;3;3;
47810;PMS5003;33575;52.600;7.318;2023-08-08T11:50:22;2;2;
47810;PMS5003;33575;52.600;7.318;2023-08-08T11:52:52;2;2;
47810;PMS5003;33575;52.600;7.318;2023-08-08T11:55:26;2;2;
47810;PMS5003;33575;52.600;7.318;2023-08-08T11:57:53;2;2;
47810;PMS5003;33575;52.600;7.318;2023-08-08T12:00:26;3;2;
47810;PMS5003;33575;52.600;7.318;2023-08-08T12:02:53;4;3;
47810;PMS5003;33575;52.600;7.318;2023-08-08T12:05:23;2;1;
47810;PMS5003;33575;52.600;7.318;2023-08-08T12:07:53;4;2;
47810;PMS5003;33575;52.600;7.318;2023-08-08T12:10:25;3;2;
47810;PMS5003;33575;52.600;7.318;2023-08-08T12:12:55;3;3;
47810;PMS5003;33575;52.600;7.318;2023-08-08T12:15:27;4;4;
47810;PMS5003;33575;52.600;7.318;2023-08-08T12:17:55;2;2;
47810;PMS5003;33575;52.600;7.318;2023-08-08T12:20:27;3;3;
47810;PMS5003;33575;52.600;7.318;2023-08-08T12:22:55;2;2;
47810;PMS5003;33575;52.600;7.318;2023-08-08T12:25:26;2;2;
47810;PMS5003;33575;52.600;7.318;2023-08-08T12:27:56;3;3;
47810;PMS5003;33575;52.600;7.318;2023-08-08T12:30:26;4;3;
47810;PMS5003;33575;52.600;7.318;2023-08-08T12:32:57;3;3;
47810;PMS5003;33575;52.600;7.318;2023-08-08T12:35:27;3;3;
47810;PMS5003;33575;52.600;7.318;2023-08-08T12:37:57;3;3;
47810;PMS5003;33575;52.600;7.318;2023-08-08T12:40:28;2;2;
47810;PMS5003;33575;52.600;7.318;2023-08-08T12:42:58;3;3;
47810;PMS5003;33575;52.600;7.318;2023-08-08T12:45:28;2;2;
47810;PMS5003;33575;52.600;7.318;2023-08-08T12:47:59;2;2;
47810;PMS5003;33575;52.600;7.318;2023-08-08T12:50:29;2;2;
47810;PMS5003;33575;52.600;7.318;2023-08-08T12:52:59;3;3;
47810;PMS5003;33575;52.600;7.318;2023-08-08T12:55:29;1;1;
47810;PMS5003;33575;52.600;7.318;2023-08-08T12:58:00;3;3;
47810;PMS5003;33575;52.600;7.318;2023-08-08T13:00:30;3;3;
47810;PMS5003;33575;52.600;7.318;2023-08-08T13:03:04;3;3;
47810;PMS5003;33575;52.600;7.318;2023-08-08T13:05:31;3;3;
47810;PMS5003;33575;52.600;7.318;2023-08-08T13:08:01;2;1;
47810;PMS5003;33575;52.600;7.318;2023-08-08T13:10:31;2;2;
47810;PMS5003;33575;52.600;7.318;2023-08-08T13:13:02;1;1;
47810;PMS5003;33575;52.600;7.318;2023-08-08T13:15:32;4;3;
47810;PMS5003;33575;52.600;7.318;2023-08-08T13:18:02;3;3;
47810;PMS5003;33575;52.600;7.318;2023-08-08T13:20:32;2;2;
47810;PMS5003;33575;52.600;7.318;2023-08-08T13:23:03;4;3;
47810;PMS5003;33575;52.600;7.318;2023-08-08T13:25:33;3;3;
47810;PMS5003;33575;52.600;7.318;2023-08-08T13:28:04;2;2;
47810;PMS5003;33575;52.600;7.318;2023-08-08T13:30:34;1;1;
47810;PMS5003;33575;52.600;7.318;2023-08-08T13:33:04;4;2;
47810;PMS5003;33575;52.600;7.318;2023-08-08T13:35:34;2;2;
47810;PMS5003;33575;52.600;7.318;2023-08-08T13:38:05;1;1;
47810;PMS5003;33575;52.600;7.318;2023-08-08T13:40:35;2;2;
47810;PMS5003;33575;52.600;7.318;2023-08-08T13:43:05;2;2;
47810;PMS5003;33575;52.600;7.318;2023-08-08T13:45:35;2;2;
47810;PMS5003;33575;52.600;7.318;2023-08-08T13:48:06;1;1;
47810;PMS5003;33575;52.600;7.318;2023-08-08T13:50:36;2;2;
47810;PMS5003;33575;52.600;7.318;2023-08-08T13:53:06;1;1;
47810;PMS5003;33575;52.600;7.318;2023-08-08T13:55:37;4;3;
47810;PMS5003;33575;52.600;7.318;2023-08-08T13:58:07;0;0;
47810;PMS5003;33575;52.600;7.318;2023-08-08T14:00:37;3;3;
47810;PMS5003;33575;52.600;7.318;2023-08-08T14:03:08;2;1;
47810;PMS5003;33575;52.600;7.318;2023-08-08T14:05:38;2;2;
47810;PMS5003;33575;52.600;7.318;2023-08-08T14:08:08;2;2;
47810;PMS5003;33575;52.600;7.318;2023-08-08T14:10:39;3;2;
47810;PMS5003;33575;52.600;7.318;2023-08-08T14:13:09;1;1;
47810;PMS5003;33575;52.600;7.318;2023-08-08T14:15:39;1;1;
47810;PMS5003;33575;52.600;7.318;2023-08-08T14:18:10;2;2;
47810;PMS5003;33575;52.600;7.318;2023-08-08T14:20:40;3;2;
47810;PMS5003;33575;52.600;7.318;2023-08-08T14:23:10;2;2;
47810;PMS5003;33575;52.600;7.318;2023-08-08T14:25:41;2;2;
47810;PMS5003;33575;52.600;7.318;2023-08-08T14:28:10;1;1;
47810;PMS5003;33575;52.600;7.318;2023-08-08T14:30:41;1;1;
47810;PMS5003;33575;52.600;7.318;2023-08-08T14:33:12;2;2;
47810;PMS5003;33575;52.600;7.318;2023-08-08T14:35:41;1;1;
47810;PMS5003;33575;52.600;7.318;2023-08-08T14:38:12;2;2;
47810;PMS5003;33575;52.600;7.318;2023-08-08T14:40:42;2;2;
47810;PMS5003;33575;52.600;7.318;2023-08-08T14:43:12;1;1;
47810;PMS5003;33575;52.600;7.318;2023-08-08T14:45:42;2;2;
47810;PMS5003;33575;52.600;7.318;2023-08-08T14:48:13;3;3;
47810;PMS5003;33575;52.600;7.318;2023-08-08T14:50:43;3;2;
47810;PMS5003;33575;52.600;7.318;2023-08-08T14:53:13;2;2;
47810;PMS5003;33575;52.600;7.318;2023-08-08T14:55:43;3;3;
47810;PMS5003;33575;52.600;7.318;2023-08-08T14:58:14;2;2;
47810;PMS5003;33575;52.600;7.318;2023-08-08T15:00:44;1;1;
47810;PMS5003;33575;52.600;7.318;2023-08-08T15:03:14;1;1;
47810;PMS5003;33575;52.600;7.318;2023-08-08T15:05:45;2;2;
47810;PMS5003;33575;52.600;7.318;2023-08-08T15:08:15;2;2;
47810;PMS5003;33575;52.600;7.318;2023-08-08T15:10:45;1;1;
47810;PMS5003;33575;52.600;7.318;2023-08-08T15:13:16;1;1;
47810;PMS5003;33575;52.600;7.318;2023-08-08T15:15:46;3;2;
47810;PMS5003;33575;52.600;7.318;2023-08-08T15:18:16;2;2;
47810;PMS5003;33575;52.600;7.318;2023-08-08T15:20:46;2;2;
47810;PMS5003;33575;52.600;7.318;2023-08-08T15:23:17;4;2;
47810;PMS5003;33575;52.600;7.318;2023-08-08T15:25:47;3;2;
47810;PMS5003;33575;52.600;7.318;2023-08-08T15:28:17;2;1;
47810;PMS5003;33575;52.600;7.318;2023-08-08T15:30:48;2;2;
47810;PMS5003;33575;52.600;7.318;2023-08-08T15:33:18;1;1;
47810;PMS5003;33575;52.600;7.318;2023-08-08T15:35:48;1;1;
47810;PMS5003;33575;52.600;7.318;2023-08-08T15:38:18;2;2;
47810;PMS5003;33575;52.600;7.318;2023-08-08T15:40:49;2;2;
47810;PMS5003;33575;52.600;7.318;2023-08-08T15:43:19;3;3;
47810;PMS5003;33575;52.600;7.318;2023-08-08T15:45:49;2;2;
47810;PMS5003;33575;52.600;7.318;2023-08-08T15:48:20;4;3;
47810;PMS5003;33575;52.600;7.318;2023-08-08T15:50:50;1;0;
47810;PMS5003;33575;52.600;7.318;2023-08-08T15:53:20;2;2;
47810;PMS5003;33575;52.600;7.318;2023-08-08T15:55:51;1;1;
47810;PMS5003;33575;52.600;7.318;2023-08-08T15:58:21;3;2;
47810;PMS5003;33575;52.600;7.318;2023-08-08T16:00:51;2;2;
47810;PMS5003;33575;52.600;7.318;2023-08-08T16:03:22;3;2;
47810;PMS5003;33575;52.600;7.318;2023-08-08T16:05:52;4;2;
47810;PMS5003;33575;52.600;7.318;2023-08-08T16:08:22;2;2;
47810;PMS5003;33575;52.600;7.318;2023-08-08T16:10:52;1;1;
47810;PMS5003;33575;52.600;7.318;2023-08-08T16:13:23;3;2;
47810;PMS5003;33575;52.600;7.318;2023-08-08T16:15:53;3;2;
47810;PMS5003;33575;52.600;7.318;2023-08-08T16:18:23;1;1;
47810;PMS5003;33575;52.600;7.318;2023-08-08T16:20:53;2;2;
47810;PMS5003;33575;52.600;7.318;2023-08-08T16:23:24;2;2;
47810;PMS5003;33575;52.600;7.318;2023-08-08T16:25:54;1;1;
47810;PMS5003;33575;52.600;7.318;2023-08-08T16:28:24;2;2;
47810;PMS5003;33575;52.600;7.318;2023-08-08T16:30:55;1;1;
47810;PMS5003;33575;52.600;7.318;2023-08-08T16:33:25;3;3;
47810;PMS5003;33575;52.600;7.318;2023-08-08T16:35:55;2;2;
47810;PMS5003;33575;52.600;7.318;2023-08-08T16:38:26;3;3;
47810;PMS5003;33575;52.600;7.318;2023-08-08T16:40:56;3;2;
47810;PMS5003;33575;52.600;7.318;2023-08-08T16:43:26;1;1;
47810;PMS5003;33575;52.600;7.318;2023-08-08T16:45:57;2;2;
47810;PMS5003;33575;52.600;7.318;2023-08-08T16:48:27;2;1;
47810;PMS5003;33575;52.600;7.318;2023-08-08T16:50:57;2;2;
47810;PMS5003;33575;52.600;7.318;2023-08-08T16:53:27;2;2;
47810;PMS5003;33575;52.600;7.318;2023-08-08T16:55:57;2;2;
47810;PMS5003;33575;52.600;7.318;2023-08-08T16:58:28;1;1;
47810;PMS5003;33575;52.600;7.318;2023-08-08T17:00:58;1;1;
47810;PMS5003;33575;52.600;7.318;2023-08-08T17:03:28;1;1;
47810;PMS5003;33575;52.600;7.318;2023-08-08T17:05:59;1;1;
47810;PMS5003;33575;52.600;7.318;2023-08-08T17:08:29;1;1;
47810;PMS5003;33575;52.600;7.318;2023-08-08T17:10:59;2;2;
47810;PMS5003;33575;52.600;7.318;2023-08-08T17:13:30;3;1;
47810;PMS5003;33575;52.600;7.318;2023-08-08T17:16:00;1;1;
47810;PMS5003;33575;52.600;7.318;2023-08-08T17:18:30;1;1;
47810;PMS5003;33575;52.600;7.318;2023-08-08T17:21:01;3;2;
47810;PMS5003;33575;52.600;7.318;2023-08-08T17:23:31;1;0;